Alcalde, New Mexico
Current Conditions -  °F | °C
As of 5:55 AM on Thursday 30 Oct 2014 (Local Time) from KLAM Reporting Station
Clear Clear  
Wind Chill: 45°   Ceiling: Unl
Heat Index: 47°   Visibility: 10mi
Dew Point: 10°   Wind: 5mph
Humidity: 23%   Direction: 330°NNW
Pressure: 30.36"   Gusts: NA
Location:  36.09°N, 106.06°W
Report Text: KLAM 301155Z AUTO 33004KT 10SM CLR 08/M12 A3036 RMK AO2 T00821122 10110 20076
Loading
Personal Weather Stations






























Interactive Weather Map
Tropical Storm Tracking
New forecast layout! Learn more

10-Day Weather Forecast

Advertisements
Track Severe Weather on mobile